Time;durP1;ratioP1;P1;durP2;ratioP2;P2;SDS_P1;SDS_P2;PMS_P1;PMS_P2;Temp;Humidity;BMP_temperature;BMP_pressure;BME280_temperature;BME280_humidity;BME280_pressure;Samples;Min_cycle;Max_cycle;Signal;HPM_P1;HPM_P2
2022/01/22 00:01:23;;;;;;;34.03;4.25;;;6.20;99.90;;;;;;6152720;23;20243;-83
2022/01/22 00:03:57;;;;;;;47.60;5.70;;;6.20;99.90;;;;;;6153083;23;20362;-84
2022/01/22 00:06:31;;;;;;;36.58;4.00;;;6.20;99.90;;;;;;6155000;23;20016;-85
2022/01/22 00:09:15;;;;;;;45.13;4.45;;;6.30;99.90;;;;;;6132141;23;20101;-85
2022/01/22 00:11:50;;;;;;;31.70;3.92;;;6.30;99.90;;;;;;6152761;23;20012;-84
2022/01/22 00:14:23;;;;;;;36.63;4.40;;;6.30;99.90;;;;;;6152940;23;20012;-85
2022/01/22 00:17:07;;;;;;;;;;;6.30;99.90;;;;;;6157856;23;20017;-84
2022/01/22 00:19:33;;;;;;;28.83;4.15;;;6.30;99.90;;;;;;6186715;23;19915;-84
2022/01/22 00:21:59;;;;;;;32.45;4.10;;;6.30;99.90;;;;;;6182344;23;20017;-83
2022/01/22 00:24:25;;;;;;;26.20;3.67;;;6.30;99.90;;;;;;6135105;23;20048;-84
2022/01/22 00:26:51;;;;;;;26.45;3.72;;;6.30;99.90;;;;;;6131665;23;20388;-83
2022/01/22 00:29:22;;;;;;;36.85;3.60;;;6.30;99.90;;;;;;6156889;23;20032;-84
2022/01/22 00:31:48;;;;;;;24.00;2.95;;;6.30;99.90;;;;;;6156958;23;20533;-83
2022/01/22 00:34:16;;;;;;;33.08;3.45;;;6.30;99.90;;;;;;6132731;23;20020;-83
2022/01/22 00:36:42;;;;;;;12.85;1.92;;;6.30;99.90;;;;;;6136482;23;20009;-85
2022/01/22 00:39:08;;;;;;;30.38;3.08;;;6.40;99.90;;;;;;6154838;23;20071;-83
2022/01/22 00:41:51;;;;;;;23.52;2.40;;;6.40;99.90;;;;;;6166956;23;20016;-84
2022/01/22 00:44:17;;;;;;;19.65;2.88;;;6.40;99.90;;;;;;6162158;23;20031;-84
2022/01/22 00:46:43;;;;;;;21.35;2.60;;;6.40;99.90;;;;;;6157930;23;20016;-84
2022/01/22 00:49:09;;;;;;;31.40;3.40;;;6.40;99.90;;;;;;6179775;23;20027;-84
2022/01/22 00:51:35;;;;;;;26.15;2.53;;;6.40;99.90;;;;;;6155802;23;20020;-84
2022/01/22 00:54:03;;;;;;;18.75;2.25;;;6.40;99.90;;;;;;6155480;23;20034;-84
2022/01/22 00:56:29;;;;;;;21.20;2.22;;;6.40;99.90;;;;;;6154012;23;20052;-84
2022/01/22 00:58:55;;;;;;;20.20;2.35;;;6.40;99.90;;;;;;6131164;23;20036;-84
2022/01/22 01:01:21;;;;;;;21.02;3.10;;;6.40;99.90;;;;;;6180266;23;20099;-86
2022/01/22 01:03:47;;;;;;;17.73;2.53;;;6.40;99.90;;;;;;6151151;23;20024;-83
2022/01/22 01:06:13;;;;;;;21.25;2.95;;;6.40;99.90;;;;;;6128763;23;20012;-84
2022/01/22 01:08:42;;;;;;;34.72;3.67;;;6.40;99.90;;;;;;6154702;23;20490;-84
2022/01/22 01:11:14;;;;;;;22.20;3.28;;;6.40;99.90;;;;;;6155757;23;20353;-86
2022/01/22 01:13:49;;;;;;;16.40;2.97;;;6.40;99.90;;;;;;6154009;23;20108;-84
2022/01/22 01:16:44;;;;;;;12.55;3.03;;;6.50;99.90;;;;;;6155181;23;20349;-84
2022/01/22 01:33:57;;;;;;;31.05;4.38;;;6.50;99.90;;;;;;6177651;23;20016;-84
2022/01/22 01:36:23;;;;;;;20.23;3.58;;;6.50;99.90;;;;;;6132138;23;20013;-84
2022/01/22 01:38:54;;;;;;;14.65;3.08;;;6.50;99.90;;;;;;6129094;23;20020;-84
2022/01/22 01:41:36;;;;;;;15.90;3.55;;;6.50;99.90;;;;;;6130678;23;20438;-84
2022/01/22 01:44:02;;;;;;;19.77;2.83;;;6.50;99.90;;;;;;6154489;23;20099;-84
2022/01/22 01:46:56;;;;;;;23.42;3.40;;;6.50;99.90;;;;;;6153317;23;20043;-84
2022/01/22 01:49:26;;;;;;;22.23;3.45;;;6.50;99.90;;;;;;6154435;23;20090;-84
2022/01/22 01:52:01;;;;;;;22.70;3.70;;;6.50;99.90;;;;;;6178004;23;20013;-85
2022/01/22 01:59:47;;;;;;;15.82;3.60;;;6.60;99.90;;;;;;6178766;23;20068;-84
2022/01/22 02:02:14;;;;;;;21.27;3.47;;;6.60;99.90;;;;;;6152818;23;20442;-84
2022/01/22 02:04:41;;;;;;;20.92;3.38;;;6.60;99.90;;;;;;6152994;23;20071;-83
2022/01/22 02:07:07;;;;;;;23.83;3.30;;;6.60;99.90;;;;;;6154847;23;20024;-84
2022/01/22 02:09:34;;;;;;;30.92;3.65;;;6.60;99.90;;;;;;6153204;23;20173;-82
2022/01/22 02:12:06;;;;;;;18.00;3.08;;;6.60;99.90;;;;;;6155382;23;20016;-85
2022/01/22 02:25:27;;;;;;;14.02;2.50;;;6.60;99.90;;;;;;6177836;23;20020;-84
2022/01/22 02:28:03;;;;;;;16.13;2.80;;;6.60;99.90;;;;;;6177837;23;20012;-85
2022/01/22 02:30:32;;;;;;;14.80;2.40;;;6.60;99.90;;;;;;6131041;23;20052;-84
2022/01/22 02:33:31;;;;;;;17.88;2.80;;;6.60;99.90;;;;;;6128520;23;20241;-84
2022/01/22 02:36:12;;;;;;;12.55;2.47;;;6.60;99.90;;;;;;6150590;23;20013;-83
2022/01/22 02:39:09;;;;;;;11.75;2.47;;;6.60;99.90;;;;;;6132037;23;20024;-84
2022/01/22 02:41:35;;;;;;;15.38;2.80;;;6.60;99.90;;;;;;6155187;23;20024;-84
2022/01/22 02:44:01;;;;;;;14.10;2.28;;;6.60;99.90;;;;;;6152096;23;20016;-83
2022/01/22 02:46:28;;;;;;;16.65;2.45;;;6.60;99.90;;;;;;6128363;23;20023;-84
2022/01/22 02:48:58;;;;;;;13.35;2.20;;;6.60;99.90;;;;;;6152370;23;20021;-85
2022/01/22 02:51:25;;;;;;;8.75;2.00;;;6.60;99.90;;;;;;6177847;23;20071;-84
2022/01/22 02:53:54;;;;;;;12.07;2.47;;;6.60;99.90;;;;;;6127376;23;20039;-84
2022/01/22 02:56:22;;;;;;;17.10;2.95;;;6.60;99.90;;;;;;6151736;23;20017;-84
2022/01/22 02:58:56;;;;;;;17.20;2.53;;;6.60;99.90;;;;;;6130411;23;20456;-85
2022/01/22 03:01:28;;;;;;;10.70;2.50;;;6.60;99.90;;;;;;6154451;23;20098;-85
2022/01/22 03:03:57;;;;;;;18.10;3.03;;;6.60;99.90;;;;;;6154788;23;20055;-86
2022/01/22 03:06:24;;;;;;;22.88;2.97;;;6.60;99.90;;;;;;6156470;23;20444;-85
2022/01/22 03:08:52;;;;;;;16.65;2.58;;;6.60;99.90;;;;;;6128886;23;20021;-84
2022/01/22 03:11:41;;;;;;;23.70;2.72;;;6.60;99.90;;;;;;6177852;23;20016;-85
2022/01/22 03:31:49;;;;;;;11.35;2.25;;;6.60;99.90;;;;;;6165709;23;20051;-86
2022/01/22 03:34:41;;;;;;;9.68;2.45;;;6.60;99.90;;;;;;6153756;23;20028;-85
2022/01/22 03:37:07;;;;;;;12.90;2.40;;;6.50;99.90;;;;;;6153322;23;20017;-84
2022/01/22 03:39:33;;;;;;;13.43;2.50;;;6.60;99.90;;;;;;6152684;23;20017;-84
2022/01/22 03:41:59;;;;;;;12.93;2.17;;;6.50;99.90;;;;;;6154435;23;20453;-86
2022/01/22 03:44:25;;;;;;;9.23;2.00;;;6.50;99.90;;;;;;6153373;23;20542;-85
2022/01/22 03:46:51;;;;;;;12.27;2.38;;;6.50;99.90;;;;;;6204545;23;20030;-85
2022/01/22 03:49:20;;;;;;;16.70;2.53;;;6.60;99.90;;;;;;6153113;23;20020;-84
2022/01/22 03:51:58;;;;;;;11.00;2.03;;;6.50;99.90;;;;;;6154625;23;20017;-85
2022/01/22 03:54:34;;;;;;;13.35;2.13;;;6.50;99.90;;;;;;6154760;23;20067;-85
2022/01/22 03:57:10;;;;;;;;;;;;;;;;;;;;;
2022/01/22 03:59:36;;;;;;;12.35;1.77;;;6.50;99.90;;;;;;6166157;23;20009;-84
2022/01/22 04:05:45;;;;;;;11.27;2.15;;;6.50;99.90;;;;;;6179242;23;20024;-84
2022/01/22 04:08:40;;;;;;;9.73;1.80;;;6.50;99.90;;;;;;6132480;23;20082;-84
2022/01/22 04:11:11;;;;;;;11.63;2.38;;;6.50;99.90;;;;;;6155287;23;20462;-84
2022/01/22 04:13:37;;;;;;;11.68;2.40;;;6.50;99.90;;;;;;6155310;23;20012;-84
2022/01/22 04:16:06;;;;;;;13.43;2.90;;;6.50;99.90;;;;;;6155869;23;20088;-86
2022/01/22 04:27:13;;;;;;;21.15;2.45;;;6.50;99.90;;;;;;6180348;23;20096;-84
2022/01/22 04:30:17;;;;;;;12.40;2.55;;;6.50;99.90;;;;;;6090482;23;20128;-84
2022/01/22 04:33:17;;;;;;;13.38;2.25;;;6.50;99.90;;;;;;6090649;23;20017;-84
2022/01/22 04:35:44;;;;;;;16.60;2.72;;;6.50;99.90;;;;;;6096782;23;20020;-84
2022/01/22 04:38:16;;;;;;;9.65;2.35;;;6.40;99.90;;;;;;6154303;23;20012;-85
2022/01/22 04:40:56;;;;;;;10.48;2.60;;;6.50;99.90;;;;;;6172648;23;20500;-85
2022/01/22 04:43:28;;;;;;;7.32;2.15;;;6.40;99.90;;;;;;6178097;23;20039;-84
2022/01/22 04:49:08;;;;;;;15.75;2.45;;;6.40;99.90;;;;;;6182348;23;20031;-85
2022/01/22 04:57:37;;;;;;;19.45;2.42;;;6.40;99.90;;;;;;6197758;23;20024;-85
2022/01/22 05:00:13;;;;;;;13.95;2.28;;;6.40;99.90;;;;;;6177016;23;20393;-84
2022/01/22 05:02:45;;;;;;;10.93;2.28;;;6.40;99.90;;;;;;6147764;23;20021;-84
2022/01/22 05:05:19;;;;;;;8.70;1.95;;;6.40;99.90;;;;;;6153089;23;20100;-85
2022/01/22 05:07:45;;;;;;;9.32;1.70;;;6.40;99.90;;;;;;6153148;23;20035;-85
2022/01/22 05:10:26;;;;;;;9.65;1.98;;;6.40;99.90;;;;;;6154160;23;20381;-85
2022/01/22 05:12:53;;;;;;;8.98;2.20;;;6.40;99.90;;;;;;6128951;23;20017;-85
2022/01/22 05:15:21;;;;;;;8.82;1.60;;;6.40;99.90;;;;;;6177315;23;20127;-84
2022/01/22 05:17:51;;;;;;;8.88;1.90;;;6.40;99.90;;;;;;6152468;23;20092;-85
2022/01/22 05:20:45;;;;;;;6.28;1.90;;;6.40;99.90;;;;;;6155258;23;20016;-84
2022/01/22 05:23:23;;;;;;;5.25;1.65;;;6.40;99.90;;;;;;6154658;23;20041;-85
2022/01/22 05:26:02;;;;;;;7.55;1.67;;;6.40;99.90;;;;;;6131414;23;20547;-86
2022/01/22 05:39:59;;;;;;;9.57;1.50;;;6.40;99.90;;;;;;6137195;23;20074;-85
2022/01/22 05:42:36;;;;;;;6.95;1.45;;;6.40;99.90;;;;;;6130736;23;20330;-84
2022/01/22 05:45:05;;;;;;;16.67;1.40;;;6.40;99.90;;;;;;6152731;23;20008;-85
2022/01/22 05:47:34;;;;;;;6.20;1.30;;;6.40;99.90;;;;;;6157095;23;20013;-82
2022/01/22 05:50:13;;;;;;;8.82;1.67;;;6.40;99.90;;;;;;6155073;23;20023;-84
2022/01/22 05:52:54;;;;;;;8.32;1.60;;;6.40;99.90;;;;;;6151180;23;20021;-85
2022/01/22 06:01:02;;;;;;;14.13;1.95;;;6.40;99.90;;;;;;6172132;23;20095;-85
2022/01/22 06:03:34;;;;;;;12.25;1.92;;;6.40;99.90;;;;;;6113227;23;20131;-84
2022/01/22 06:06:06;;;;;;;14.20;1.80;;;6.40;99.90;;;;;;6113987;23;20478;-85
2022/01/22 06:08:46;;;;;;;;;;;6.40;99.90;;;;;;6140598;23;20024;-86
2022/01/22 06:11:21;;;;;;;15.23;1.65;;;6.40;99.90;;;;;;6129872;23;19920;-85
2022/01/22 06:13:53;;;;;;;11.75;1.73;;;6.40;99.90;;;;;;6129390;23;20390;-84
2022/01/22 06:16:26;;;;;;;8.82;1.77;;;6.40;99.90;;;;;;6129429;23;20095;-84
2022/01/22 06:18:58;;;;;;;8.80;1.60;;;6.40;99.90;;;;;;6153467;23;20612;-85
2022/01/22 06:24:27;;;;;;;12.25;2.08;;;6.40;99.90;;;;;;6157486;23;20099;-85
2022/01/22 06:27:03;;;;;;;;;;;;;;;;;;;;;
2022/01/22 06:29:52;;;;;;;14.82;2.03;;;6.30;99.90;;;;;;6175435;23;20019;-85
2022/01/22 06:32:27;;;;;;;19.40;2.45;;;6.40;99.90;;;;;;6104620;23;20017;-85
2022/01/22 06:34:56;;;;;;;17.42;2.28;;;6.30;99.90;;;;;;6127635;23;20083;-86
2022/01/22 06:37:22;;;;;;;11.77;2.45;;;6.30;99.90;;;;;;6177052;23;20013;-84
2022/01/22 06:42:38;;;;;;;31.35;2.88;;;6.40;99.90;;;;;;6177177;23;20050;-84
2022/01/22 06:45:31;;;;;;;20.27;2.22;;;6.40;99.90;;;;;;6152494;23;20013;-84
2022/01/22 06:48:09;;;;;;;22.30;2.53;;;6.30;99.90;;;;;;6178085;23;20434;-85
2022/01/22 06:50:34;;;;;;;18.50;2.47;;;6.40;99.90;;;;;;6152740;23;20449;-84
2022/01/22 06:53:01;;;;;;;22.58;2.95;;;6.30;99.90;;;;;;6151804;23;20047;-86
2022/01/22 06:55:42;;;;;;;17.17;2.60;;;6.40;99.90;;;;;;6129544;23;20095;-85
2022/01/22 06:58:11;;;;;;;28.83;3.35;;;6.40;99.90;;;;;;6156504;23;20595;-85
2022/01/22 07:00:38;;;;;;;20.90;3.05;;;6.40;99.90;;;;;;6152707;23;20012;-85
2022/01/22 07:03:07;;;;;;;35.28;3.47;;;6.40;99.90;;;;;;6129247;23;20024;-85
2022/01/22 07:05:33;;;;;;;10.13;2.65;;;6.40;99.90;;;;;;6154028;23;20082;-85
2022/01/22 07:07:59;;;;;;;16.13;3.03;;;6.40;99.90;;;;;;6131232;23;20013;-86
2022/01/22 07:10:25;;;;;;;15.57;2.65;;;6.30;99.90;;;;;;6157373;23;20078;-85
2022/01/22 07:12:51;;;;;;;11.00;2.63;;;6.40;99.90;;;;;;6187900;23;20016;-86
2022/01/22 07:15:22;;;;;;;18.42;2.53;;;6.40;99.90;;;;;;6138051;23;20225;-86
2022/01/22 07:18:13;;;;;;;22.15;2.97;;;6.40;99.90;;;;;;6158459;23;20071;-83
2022/01/22 07:20:43;;;;;;;15.77;3.38;;;6.40;99.90;;;;;;6143409;23;20035;-85
2022/01/22 07:23:42;;;;;;;12.13;2.47;;;6.40;99.90;;;;;;6158226;23;20035;-83
2022/01/22 07:26:15;;;;;;;14.43;2.40;;;6.40;99.90;;;;;;6161429;23;20104;-85
2022/01/22 07:28:42;;;;;;;19.25;3.25;;;6.40;99.90;;;;;;6158058;23;20040;-85
2022/01/22 07:31:34;;;;;;;12.52;2.58;;;6.40;99.90;;;;;;6157747;23;20039;-85
2022/01/22 07:34:00;;;;;;;17.63;2.97;;;6.40;99.90;;;;;;6182522;23;20046;-84
2022/01/22 07:36:32;;;;;;;20.42;2.60;;;6.30;99.90;;;;;;6155255;23;20013;-85
2022/01/22 07:39:07;;;;;;;11.88;2.20;;;6.40;99.90;;;;;;6132495;23;20067;-85
2022/01/22 07:41:38;;;;;;;8.70;1.95;;;6.40;99.90;;;;;;6182794;23;20320;-83
2022/01/22 07:44:07;;;;;;;14.82;2.30;;;6.30;99.90;;;;;;6181348;23;20074;-85
2022/01/22 07:46:32;;;;;;;13.32;2.15;;;6.40;99.90;;;;;;6159070;23;20096;-84
2022/01/22 07:49:14;;;;;;;17.00;2.70;;;6.40;99.90;;;;;;6136385;23;20021;-85
2022/01/22 07:51:47;;;;;;;11.43;2.33;;;6.40;99.90;;;;;;6157469;23;20031;-85
2022/01/22 07:54:16;;;;;;;8.05;2.13;;;6.40;99.90;;;;;;6157803;23;20529;-86
2022/01/22 07:56:48;;;;;;;9.77;2.15;;;6.40;99.90;;;;;;6160773;23;20012;-85
2022/01/22 07:59:33;;;;;;;12.10;2.22;;;6.30;99.90;;;;;;6131892;23;20344;-85
2022/01/22 08:02:04;;;;;;;14.77;2.45;;;6.30;99.90;;;;;;6134129;23;20021;-85
2022/01/22 08:04:30;;;;;;;9.10;1.83;;;6.30;99.90;;;;;;6157868;23;20473;-85
2022/01/22 08:06:57;;;;;;;7.72;2.17;;;6.40;99.90;;;;;;6158608;23;20017;-85
2022/01/22 08:09:23;;;;;;;8.43;2.10;;;6.30;99.90;;;;;;6157235;23;20021;-85
2022/01/22 08:11:59;;;;;;;13.82;2.47;;;6.30;99.90;;;;;;6157982;23;20525;-85
2022/01/22 08:14:25;;;;;;;9.52;2.20;;;6.40;99.90;;;;;;6157446;23;20044;-86
2022/01/22 08:16:51;;;;;;;12.85;2.42;;;6.30;99.90;;;;;;6158808;23;20219;-84
2022/01/22 08:19:20;;;;;;;6.32;2.38;;;6.30;99.90;;;;;;6156138;23;20073;-86
2022/01/22 08:21:52;;;;;;;9.18;2.13;;;6.30;99.90;;;;;;6157593;23;20090;-85
2022/01/22 08:24:21;;;;;;;8.77;1.60;;;6.40;99.90;;;;;;6158870;23;20024;-85
2022/01/22 08:29:41;;;;;;;10.18;1.95;;;6.40;99.90;;;;;;6183892;23;20185;-86
2022/01/22 08:37:27;;;;;;;6.57;1.70;;;6.30;99.90;;;;;;6182629;23;20458;-86
2022/01/22 08:39:52;;;;;;;5.95;1.45;;;6.30;99.90;;;;;;6157244;23;20062;-83
2022/01/22 08:42:22;;;;;;;9.13;1.60;;;6.30;99.90;;;;;;6133048;23;20327;-84
2022/01/22 08:44:57;;;;;;;6.93;1.38;;;6.30;99.90;;;;;;6160048;23;20043;-83
2022/01/22 08:47:28;;;;;;;5.22;1.38;;;6.30;99.90;;;;;;6157091;23;20019;-84
2022/01/22 08:49:54;;;;;;;7.18;1.52;;;6.30;99.90;;;;;;6157250;23;20017;-85
2022/01/22 08:52:24;;;;;;;5.50;1.17;;;6.30;99.90;;;;;;6183483;23;20473;-83
2022/01/22 08:54:57;;;;;;;9.30;1.50;;;6.30;99.90;;;;;;6132864;23;20454;-86
2022/01/22 08:57:23;;;;;;;5.22;1.40;;;6.30;99.90;;;;;;6136826;23;20013;-84
2022/01/22 08:59:49;;;;;;;4.93;1.33;;;6.30;99.90;;;;;;6136320;23;20083;-85
2022/01/22 09:02:18;;;;;;;6.38;1.40;;;6.30;99.90;;;;;;6184572;23;20035;-85
2022/01/22 09:04:52;;;;;;;7.13;1.30;;;6.30;99.90;;;;;;6183539;23;20153;-85
2022/01/22 09:07:21;;;;;;;4.68;1.30;;;6.30;99.90;;;;;;6184079;23;20346;-84
2022/01/22 09:10:06;;;;;;;5.03;1.40;;;6.30;99.90;;;;;;6162987;23;20071;-86
2022/01/22 09:12:35;;;;;;;11.70;1.73;;;6.40;99.90;;;;;;6156869;23;20016;-85
2022/01/22 09:15:01;;;;;;;7.18;1.42;;;6.40;99.90;;;;;;6133902;23;20012;-85
2022/01/22 09:17:34;;;;;;;2.75;1.27;;;6.40;99.90;;;;;;6158443;23;20012;-86
2022/01/22 09:20:42;;;;;;;8.85;1.30;;;6.40;99.90;;;;;;6155056;23;20099;-86
2022/01/22 09:23:05;;;;;;;9.48;1.92;;;6.40;99.90;;;;;;6269123;22;20023;-86
2022/01/22 09:25:31;;;;;;;9.10;1.40;;;6.40;99.90;;;;;;6210283;23;20339;-85
2022/01/22 09:28:04;;;;;;;8.07;1.88;;;6.40;99.90;;;;;;6160222;23;20039;-86
2022/01/22 09:30:30;;;;;;;13.30;2.03;;;6.40;99.90;;;;;;6185922;23;20024;-85
2022/01/22 09:33:23;;;;;;;14.85;2.10;;;6.40;99.90;;;;;;6161481;23;20465;-85
2022/01/22 09:35:48;;;;;;;8.27;1.60;;;6.40;99.90;;;;;;6207018;23;20026;-85
2022/01/22 09:38:13;;;;;;;12.45;2.03;;;6.40;99.90;;;;;;6159972;23;20095;-85
2022/01/22 09:40:39;;;;;;;13.07;1.83;;;6.40;99.90;;;;;;6138966;23;20059;-84
2022/01/22 09:43:05;;;;;;;20.65;2.65;;;6.40;99.90;;;;;;6187017;23;20016;-84
2022/01/22 09:45:31;;;;;;;15.68;2.08;;;6.40;99.90;;;;;;6161322;23;20012;-85
2022/01/22 09:48:00;;;;;;;9.05;1.80;;;6.40;99.90;;;;;;6212201;23;20052;-85
2022/01/22 09:50:32;;;;;;;19.70;2.45;;;6.40;99.90;;;;;;6159146;23;20331;-84
2022/01/22 09:53:00;;;;;;;29.63;2.70;;;6.40;99.90;;;;;;6185777;23;20264;-84
2022/01/22 09:55:26;;;;;;;24.15;2.40;;;6.50;99.90;;;;;;6188054;23;20069;-86
2022/01/22 09:57:56;;;;;;;19.75;2.35;;;6.50;99.90;;;;;;6213390;23;20016;-84
2022/01/22 10:00:26;;;;;;;22.63;2.40;;;6.50;99.90;;;;;;6187492;23;20016;-85
2022/01/22 10:02:58;;;;;;;21.92;3.53;;;6.50;99.90;;;;;;6187032;23;20370;-85
2022/01/22 10:05:33;;;;;;;12.75;2.42;;;6.60;99.90;;;;;;6157360;23;20020;-84
2022/01/22 10:08:28;;;;;;;19.85;2.47;;;6.60;99.90;;;;;;6182088;23;20016;-85
2022/01/22 10:10:59;;;;;;;12.38;2.45;;;6.60;99.90;;;;;;6161357;23;20300;-84
2022/01/22 10:13:52;;;;;;;14.70;2.92;;;6.60;99.90;;;;;;6185492;23;20016;-84
2022/01/22 10:16:20;;;;;;;;;;;6.60;99.90;;;;;;6186810;23;20012;-85
2022/01/22 10:19:06;;;;;;;14.05;2.75;;;6.60;99.90;;;;;;6205988;23;20192;-84
2022/01/22 10:21:33;;;;;;;18.90;3.53;;;6.60;99.90;;;;;;6187115;23;20023;-85
2022/01/22 10:25:02;;;;;;;28.20;3.50;;;6.60;99.90;;;;;;6186093;23;20012;-84
2022/01/22 10:27:36;;;;;;;33.88;5.10;;;6.70;99.90;;;;;;6206544;23;20020;-85
2022/01/22 10:30:08;;;;;;;11.38;3.40;;;6.70;99.90;;;;;;6184321;23;20023;-85
2022/01/22 10:35:19;;;;;;;18.00;3.65;;;6.80;99.90;;;;;;6184419;23;20353;-85
2022/01/22 10:37:45;;;;;;;12.25;3.35;;;6.80;99.90;;;;;;6181956;23;20058;-84
2022/01/22 10:40:28;;;;;;;13.27;3.67;;;6.80;99.90;;;;;;6183897;23;20020;-85
2022/01/22 10:43:31;;;;;;;14.57;3.63;;;6.90;99.90;;;;;;6158792;23;20008;-85
2022/01/22 10:46:32;;;;;;;15.70;3.67;;;6.90;99.90;;;;;;6185284;23;20012;-84
2022/01/22 10:49:12;;;;;;;15.90;3.55;;;7.00;99.90;;;;;;6184481;23;20047;-86
2022/01/22 10:51:59;;;;;;;11.60;3.25;;;7.00;99.90;;;;;;6204454;23;20035;-85
2022/01/22 10:54:33;;;;;;;16.50;4.40;;;7.10;99.90;;;;;;6180923;22;20039;-85
2022/01/22 10:57:34;;;;;;;16.65;4.30;;;7.20;99.90;;;;;;6158822;23;20256;-85
2022/01/22 11:00:32;;;;;;;17.08;4.03;;;7.30;99.90;;;;;;6033141;23;20327;-85
2022/01/22 11:04:03;;;;;;;22.88;4.38;;;7.30;99.90;;;;;;6037703;23;20024;-85
2022/01/22 11:07:37;;;;;;;16.70;3.53;;;7.30;99.90;;;;;;5994342;23;20442;-85
2022/01/22 11:10:37;;;;;;;19.75;3.90;;;7.30;99.90;;;;;;5979333;23;20019;-86
2022/01/22 11:13:25;;;;;;;25.67;3.67;;;7.30;99.90;;;;;;6031148;23;20086;-86
2022/01/22 11:16:11;;;;;;;18.52;3.63;;;7.30;99.90;;;;;;5958821;23;20476;-86
2022/01/22 11:19:12;;;;;;;23.73;3.55;;;7.30;99.90;;;;;;6092571;23;20018;-86
2022/01/22 11:22:30;;;;;;;38.55;4.15;;;7.30;99.90;;;;;;6111337;23;20089;-85
2022/01/22 11:25:23;;;;;;;12.43;3.67;;;7.40;99.90;;;;;;6126036;22;20099;-83
2022/01/22 11:27:57;;;;;;;22.73;3.88;;;7.30;99.90;;;;;;6240420;22;20051;-83
2022/01/22 11:30:25;;;;;;;31.55;5.30;;;7.40;99.90;;;;;;6213040;22;20174;-83
2022/01/22 11:33:02;;;;;;;22.73;3.80;;;7.30;99.90;;;;;;6215038;22;20043;-83
2022/01/22 11:35:46;;;;;;;21.23;3.90;;;7.40;99.90;;;;;;6212315;22;20030;-82
2022/01/22 11:38:36;;;;;;;18.67;4.00;;;7.40;99.90;;;;;;6210524;22;20043;-83
2022/01/22 11:41:06;;;;;;;20.80;4.72;;;7.30;99.90;;;;;;6196823;22;20058;-82
2022/01/22 11:44:20;;;;;;;31.58;4.53;;;7.30;99.90;;;;;;6221311;22;20400;-83
2022/01/22 11:47:09;;;;;;;18.98;3.75;;;7.30;99.90;;;;;;6241820;22;20019;-85
2022/01/22 11:50:09;;;;;;;40.20;4.72;;;7.40;99.90;;;;;;6191085;22;20106;-84
2022/01/22 11:52:40;;;;;;;22.15;4.07;;;7.30;99.90;;;;;;6214023;22;20022;-85
2022/01/22 11:55:12;;;;;;;21.45;3.75;;;7.30;99.90;;;;;;6239913;22;20011;-85
2022/01/22 11:57:56;;;;;;;26.33;4.93;;;7.30;99.90;;;;;;6216687;22;20011;-85
2022/01/22 12:00:25;;;;;;;16.30;4.45;;;7.20;99.90;;;;;;6190537;22;20243;-84
2022/01/22 12:03:03;;;;;;;23.58;5.20;;;7.20;99.90;;;;;;6237732;22;20020;-85
2022/01/22 12:05:49;;;;;;;18.08;4.68;;;7.20;99.90;;;;;;6211577;22;20016;-83
2022/01/22 12:08:22;;;;;;;17.63;4.75;;;7.20;99.90;;;;;;6189742;22;20569;-84
2022/01/22 12:16:18;;;;;;;23.55;4.57;;;7.20;99.90;;;;;;6237064;22;20020;-84
2022/01/22 12:18:55;;;;;;;25.95;5.60;;;7.20;99.90;;;;;;6238376;22;20522;-84
2022/01/22 12:23:56;;;;;;;31.80;5.70;;;7.10;99.90;;;;;;6234496;22;20085;-84
2022/01/22 12:26:42;;;;;;;27.10;4.85;;;7.10;99.90;;;;;;6236852;22;20214;-85
2022/01/22 12:29:29;;;;;;;20.10;5.60;;;7.10;99.90;;;;;;6209901;22;20399;-85
2022/01/22 12:32:10;;;;;;;26.02;5.28;;;7.10;99.90;;;;;;6235790;22;20196;-84
2022/01/22 12:34:52;;;;;;;30.85;5.85;;;7.10;99.90;;;;;;6237237;22;20012;-84
2022/01/22 12:37:20;;;;;;;36.95;5.60;;;7.10;99.90;;;;;;6212439;22;20322;-84
2022/01/22 12:39:50;;;;;;;32.00;6.15;;;7.10;99.90;;;;;;6234419;22;20012;-85
2022/01/22 12:42:28;;;;;;;29.92;5.97;;;7.10;99.90;;;;;;6211215;22;20022;-84
2022/01/22 12:44:59;;;;;;;21.30;5.57;;;7.10;99.90;;;;;;6189236;22;20015;-84
2022/01/22 12:47:26;;;;;;;36.70;7.50;;;7.10;99.90;;;;;;6210307;22;20027;-83
2022/01/22 12:50:01;;;;;;;25.88;6.72;;;7.10;99.90;;;;;;6162785;22;20016;-84
2022/01/22 12:52:36;;;;;;;18.30;6.10;;;7.10;99.90;;;;;;6211931;22;20027;-83
2022/01/22 12:55:26;;;;;;;23.95;5.95;;;7.10;99.90;;;;;;6192607;22;20022;-85
2022/01/22 12:57:53;;;;;;;23.67;6.65;;;7.10;99.90;;;;;;6235594;22;20090;-84
2022/01/22 13:00:20;;;;;;;26.40;6.90;;;7.10;99.90;;;;;;6188269;22;20215;-85
2022/01/22 13:02:55;;;;;;;34.92;7.65;;;7.10;99.90;;;;;;6185974;22;20047;-84
2022/01/22 13:05:22;;;;;;;30.73;6.45;;;7.10;99.90;;;;;;6190190;22;20402;-83
2022/01/22 13:07:56;;;;;;;19.63;6.22;;;7.10;99.90;;;;;;6210173;22;20016;-83
2022/01/22 13:10:27;;;;;;;23.08;6.20;;;7.10;99.90;;;;;;6237610;22;20462;-84
2022/01/22 13:12:56;;;;;;;19.13;6.65;;;7.10;99.90;;;;;;6188765;22;20011;-85
2022/01/22 13:15:22;;;;;;;27.63;5.80;;;7.10;99.90;;;;;;6213737;22;20014;-84
2022/01/22 13:17:56;;;;;;;40.00;6.88;;;7.10;99.90;;;;;;6187239;22;20427;-84
2022/01/22 13:20:24;;;;;;;31.90;6.07;;;7.10;99.90;;;;;;6185164;22;20043;-85
2022/01/22 13:22:51;;;;;;;26.10;6.85;;;7.10;99.90;;;;;;6237750;22;20371;-85
2022/01/22 13:25:17;;;;;;;38.85;7.13;;;7.10;99.90;;;;;;6186625;22;20467;-84
2022/01/22 13:27:59;;;;;;;24.05;5.88;;;7.10;99.90;;;;;;6187134;22;20012;-85
2022/01/22 13:30:35;;;;;;;22.25;5.72;;;7.10;99.90;;;;;;6213225;22;20016;-84
2022/01/22 13:33:14;;;;;;;22.90;6.22;;;7.10;99.90;;;;;;6235932;22;20079;-84
2022/01/22 13:35:56;;;;;;;22.27;6.43;;;7.10;99.90;;;;;;6236876;22;20090;-83
2022/01/22 13:49:29;;;;;;;26.98;6.68;;;7.20;99.90;;;;;;6235176;22;20020;-85
2022/01/22 13:51:58;;;;;;;25.52;5.93;;;7.10;99.90;;;;;;6236464;22;20020;-84
2022/01/22 13:54:41;;;;;;;25.05;6.18;;;7.10;99.90;;;;;;6209848;22;20016;-85
2022/01/22 13:57:10;;;;;;;24.38;5.85;;;7.20;99.90;;;;;;6211060;22;20015;-84
2022/01/22 13:59:38;;;;;;;17.45;5.88;;;7.10;99.90;;;;;;6188324;22;20420;-84
2022/01/22 14:02:37;;;;;;;34.78;5.93;;;7.10;99.90;;;;;;6210021;22;20102;-84
2022/01/22 14:05:07;;;;;;;28.58;4.82;;;7.20;99.90;;;;;;6233973;22;20031;-84
2022/01/22 14:07:46;;;;;;;34.70;5.38;;;7.20;99.90;;;;;;6213266;22;20089;-85
2022/01/22 14:10:12;;;;;;;23.58;4.57;;;7.10;99.90;;;;;;6213845;22;20022;-85
2022/01/22 14:12:43;;;;;;;16.08;4.05;;;7.10;99.90;;;;;;6210198;22;20012;-85
2022/01/22 14:15:18;;;;;;;17.52;4.30;;;7.10;99.90;;;;;;6211321;22;20047;-84
2022/01/22 14:18:33;;;;;;;;;;;;;;;;;;;;;
2022/01/22 14:21:22;;;;;;;12.60;3.63;;;7.10;99.90;;;;;;6236925;22;20015;-84
2022/01/22 14:23:52;;;;;;;19.05;3.90;;;7.10;99.90;;;;;;6209045;22;20016;-85
2022/01/22 14:26:25;;;;;;;20.98;4.47;;;7.00;99.90;;;;;;6186484;22;20018;-85
2022/01/22 14:28:57;;;;;;;24.40;4.75;;;7.00;99.90;;;;;;6210674;22;20016;-85
2022/01/22 14:31:26;;;;;;;;;;;7.00;99.90;;;;;;6239048;22;20011;-85
2022/01/22 14:34:13;;;;;;;17.92;3.28;;;7.00;99.90;;;;;;6211472;22;19966;-85
2022/01/22 14:36:54;;;;;;;22.15;3.50;;;7.00;99.90;;;;;;6212282;22;20452;-85
2022/01/22 14:43:47;;;;;;;21.73;3.60;;;7.00;99.90;;;;;;6189182;22;20072;-85
2022/01/22 14:45:09;;;;;;;15.55;3.33;;;6.90;99.90;;;;;;6237889;22;20385;-84
2022/01/22 14:47:35;;;;;;;;;;;6.90;99.90;;;;;;6240115;22;20475;-85
2022/01/22 14:50:09;;;;;;;;;;;6.90;99.90;;;;;;6210590;22;19982;-84
2022/01/22 14:52:35;;;;;;;;;;;6.90;99.90;;;;;;6217700;22;19930;-85
2022/01/22 14:55:15;;;;;;;;;;;6.80;99.90;;;;;;6225591;22;20473;-85
2022/01/22 14:57:46;;;;;;;;;;;6.70;99.90;;;;;;6216861;22;20383;-85
2022/01/22 15:00:20;;;;;;;;;;;6.80;99.90;;;;;;6238663;22;20392;-85
2022/01/22 15:03:08;;;;;;;;;;;6.80;99.90;;;;;;6238288;22;19918;-85
2022/01/22 15:05:36;;;;;;;;;;;6.70;99.90;;;;;;6213628;22;19937;-85
2022/01/22 15:08:05;;;;;;;;;;;6.70;99.90;;;;;;6211553;22;20248;-85
2022/01/22 15:10:31;;;;;;;;;;;6.60;99.90;;;;;;6211650;22;19915;-84
2022/01/22 15:12:57;;;;;;;;;;;6.60;99.90;;;;;;6187785;22;20366;-85
2022/01/22 15:15:46;;;;;;;;;;;6.60;99.90;;;;;;6214067;22;19915;-85
2022/01/22 15:18:25;;;;;;;;;;;6.60;99.90;;;;;;6216683;22;19911;-85
2022/01/22 15:20:53;;;;;;;;;;;6.60;99.90;;;;;;6217007;22;19915;-83
2022/01/22 15:23:18;;;;;;;;;;;6.60;99.90;;;;;;6214857;22;20014;-85
2022/01/22 15:25:44;;;;;;;;;;;6.60;99.90;;;;;;6212051;22;19915;-85
2022/01/22 15:28:15;;;;;;;;;;;6.50;99.90;;;;;;6188151;22;19919;-85
2022/01/22 15:30:49;;;;;;;;;;;6.50;99.90;;;;;;6189997;22;19915;-83
2022/01/22 15:36:23;;;;;;;;;;;6.40;99.90;;;;;;6221403;22;19911;-84
2022/01/22 15:38:48;;;;;;;;;;;6.40;99.90;;;;;;6213525;22;19911;-85
2022/01/22 15:41:14;;;;;;;;;;;6.40;99.90;;;;;;6182744;22;19915;-84
2022/01/22 15:43:43;;;;;;;;;;;6.30;99.90;;;;;;6236698;22;19965;-85
2022/01/22 15:46:17;;;;;;;;;;;6.30;99.90;;;;;;6186318;22;19915;-85
2022/01/22 15:48:47;;;;;;;;;;;6.30;99.90;;;;;;6211141;22;19911;-85